Time;durP1;ratioP1;P1;durP2;ratioP2;P2;SDS_P1;SDS_P2;PMS_P1;PMS_P2;Temp;Humidity;BMP_temperature;BMP_pressure;BME280_temperature;BME280_humidity;BME280_pressure;Samples;Min_cycle;Max_cycle;Signal;HPM_P1;HPM_P2
2023/09/05 00:00:15;;;;;;;3.15;2.28;;;;;;;18.84;68.26;100679.56;6345531;27;20052;-72
2023/09/05 00:03:18;;;;;;;2.80;1.85;;;;;;;18.80;67.85;100686.09;6330728;28;20059;-72
2023/09/05 00:06:19;;;;;;;3.13;1.65;;;;;;;18.83;67.30;100682.31;6326122;28;20048;-72
2023/09/05 00:09:19;;;;;;;3.70;1.90;;;;;;;18.56;68.10;100688.13;6333779;28;21510;-73
2023/09/05 00:12:20;;;;;;;2.25;1.70;;;;;;;19.02;66.64;100684.22;6324926;28;20492;-72
2023/09/05 00:15:21;;;;;;;2.92;1.73;;;;;;;18.70;68.02;100682.53;6324051;28;20506;-73
2023/09/05 00:18:27;;;;;;;2.55;1.73;;;;;;;18.84;67.49;100695.44;6336481;28;20058;-73
2023/09/05 00:21:28;;;;;;;2.30;1.67;;;;;;;18.95;66.97;100701.59;6338926;28;20056;-73
2023/09/05 00:24:31;;;;;;;3.15;1.83;;;;;;;18.73;67.83;100695.47;6346229;28;20104;-72
2023/09/05 00:27:34;;;;;;;2.83;2.00;;;;;;;18.80;67.88;100695.78;6346901;28;20119;-72
2023/09/05 00:30:35;;;;;;;3.00;1.80;;;;;;;18.73;67.83;100691.00;6343272;28;20178;-72
2023/09/05 00:33:36;;;;;;;5.80;1.65;;;;;;;18.55;68.10;100687.28;6338253;28;20048;-72
2023/09/05 00:36:39;;;;;;;7.90;2.47;;;;;;;18.29;69.23;100686.84;6331020;28;20051;-72
2023/09/05 00:39:44;;;;;;;3.40;1.92;;;;;;;18.39;69.24;100685.13;6329420;28;20111;-71
2023/09/05 00:42:44;;;;;;;3.30;2.15;;;;;;;18.71;68.55;100679.72;6331326;28;20499;-72
2023/09/05 00:45:49;;;;;;;2.67;1.80;;;;;;;18.53;68.63;100670.72;6330177;28;20073;-72
2023/09/05 00:48:52;;;;;;;5.47;1.83;;;;;;;18.62;68.61;100675.22;6347555;28;20062;-71
2023/09/05 00:52:00;;;;;;;2.78;1.52;;;;;;;18.26;69.23;100676.53;6344168;28;20126;-72
2023/09/05 00:55:04;;;;;;;2.72;1.70;;;;;;;18.17;69.94;100670.22;6331626;28;20156;-74
2023/09/05 00:58:07;;;;;;;3.30;1.90;;;;;;;18.12;70.34;100677.69;6340396;28;20447;-71
2023/09/05 01:01:08;;;;;;;7.75;1.80;;;;;;;18.27;70.25;100678.22;6344334;28;20056;-71
2023/09/05 01:04:09;;;;;;;2.95;2.03;;;;;;;18.33;69.89;100677.69;6326381;28;20111;-71
2023/09/05 01:07:20;;;;;;;2.60;1.98;;;;;;;18.46;69.51;100669.56;6324263;28;20051;-72
2023/09/05 01:10:31;;;;;;;4.40;2.38;;;;;;;18.17;70.07;100669.38;6327159;28;20044;-74
2023/09/05 01:13:32;;;;;;;1.93;1.70;;;;;;;18.12;70.71;100669.78;6338889;28;20047;-73
2023/09/05 01:16:45;;;;;;;2.70;1.80;;;;;;;18.39;69.77;100671.03;6331722;28;20702;-73
2023/09/05 01:19:46;;;;;;;2.88;1.63;;;;;;;18.35;69.86;100667.00;6333604;28;20132;-73
2023/09/05 01:23:05;;;;;;;4.03;2.35;;;;;;;18.22;69.95;100662.75;6342935;28;20058;-73
2023/09/05 01:26:07;;;;;;;3.75;1.77;;;;;;;17.92;71.15;100666.13;6340246;28;20136;-73
2023/09/05 01:29:09;;;;;;;4.95;1.70;;;;;;;18.15;70.66;100658.94;6323131;28;20553;-73
2023/09/05 01:32:10;;;;;;;2.10;1.73;;;;;;;18.13;70.23;100671.44;6322370;28;20060;-73
2023/09/05 01:35:10;;;;;;;4.85;2.10;;;;;;;18.33;69.34;100669.78;6350491;27;20048;-73
2023/09/05 01:38:12;;;;;;;3.50;1.90;;;;;;;18.27;70.08;100673.75;6348674;28;20047;-72
2023/09/05 01:41:13;;;;;;;2.37;1.87;;;;;;;18.20;69.48;100675.25;6331106;28;20169;-73
2023/09/05 01:44:14;;;;;;;2.67;1.77;;;;;;;17.91;70.92;100670.56;6339226;28;20044;-73
2023/09/05 01:47:14;;;;;;;2.58;1.60;;;;;;;17.96;70.51;100672.84;6324138;28;20471;-72
2023/09/05 01:50:19;;;;;;;3.55;2.00;;;;;;;18.34;69.23;100660.88;6338755;28;20058;-73
2023/09/05 01:53:20;;;;;;;2.65;1.73;;;;;;;18.20;69.68;100658.53;6357401;27;20052;-73
2023/09/05 01:56:21;;;;;;;2.45;2.00;;;;;;;17.84;71.15;100663.28;6340674;28;20047;-73
2023/09/05 01:59:22;;;;;;;2.97;1.77;;;;;;;17.94;70.05;100658.09;6322806;28;20147;-73
2023/09/05 02:02:25;;;;;;;2.67;2.00;;;;;;;18.09;70.50;100665.56;6330485;28;20136;-73
2023/09/05 02:05:26;;;;;;;5.03;2.15;;;;;;;18.26;69.75;100658.91;6343382;28;20051;-73
2023/09/05 02:08:27;;;;;;;2.88;1.77;;;;;;;18.12;70.05;100660.03;6346406;28;20387;-73
2023/09/05 02:11:28;;;;;;;2.92;1.95;;;;;;;18.21;69.79;100662.88;6336914;28;20055;-73
2023/09/05 02:14:28;;;;;;;3.08;1.90;;;;;;;18.06;70.45;100665.81;6337669;28;20055;-73
2023/09/05 02:17:31;;;;;;;2.42;1.80;;;;;;;18.15;69.40;100671.31;6343173;28;20127;-73
2023/09/05 02:20:32;;;;;;;2.80;1.95;;;;;;;18.28;69.49;100671.94;6346183;28;20059;-72
2023/09/05 02:23:33;;;;;;;3.42;2.00;;;;;;;18.09;69.91;100670.84;6347464;28;20428;-72
2023/09/05 02:26:34;;;;;;;4.50;2.17;;;;;;;17.90;70.44;100675.97;6334282;28;20483;-72
2023/09/05 02:29:34;;;;;;;6.10;2.20;;;;;;;17.78;71.12;100677.78;6321260;28;20050;-72
2023/09/05 02:32:35;;;;;;;3.63;1.92;;;;;;;17.75;72.02;100669.25;6331318;28;20511;-73
2023/09/05 02:35:36;;;;;;;3.88;2.22;;;;;;;17.81;71.42;100671.41;6341038;28;20052;-72
2023/09/05 02:38:37;;;;;;;2.75;2.00;;;;;;;17.78;72.44;100664.56;6343347;28;20047;-73
2023/09/05 02:41:38;;;;;;;2.70;1.83;;;;;;;17.76;71.59;100665.66;6344741;28;20058;-73
2023/09/05 02:44:38;;;;;;;4.35;2.20;;;;;;;17.71;72.00;100668.69;6356424;27;20134;-74
2023/09/05 02:47:41;;;;;;;4.85;2.00;;;;;;;17.75;72.52;100678.03;6341353;28;20044;-73
2023/09/05 02:50:45;;;;;;;2.97;1.92;;;;;;;17.56;72.56;100677.84;6341992;28;20043;-73
2023/09/05 02:53:47;;;;;;;2.45;1.77;;;;;;;17.40;73.31;100687.00;6343288;28;20047;-73
2023/09/05 02:56:48;;;;;;;3.72;2.38;;;;;;;17.23;73.81;100679.56;6341665;28;20045;-73
2023/09/05 02:59:53;;;;;;;2.70;2.10;;;;;;;17.70;72.81;100673.09;6324442;28;20056;-73
2023/09/05 03:02:56;;;;;;;2.60;2.17;;;;;;;18.04;70.96;100675.69;6332319;28;20414;-73
2023/09/05 03:05:57;;;;;;;3.80;2.20;;;;;;;17.82;72.35;100676.56;6336623;28;20047;-73
2023/09/05 03:09:00;;;;;;;4.60;2.28;;;;;;;17.60;71.66;100684.53;6336234;28;20082;-73
2023/09/05 03:12:01;;;;;;;2.72;1.90;;;;;;;17.82;71.22;100687.13;6343544;28;20058;-73
2023/09/05 03:15:03;;;;;;;3.58;2.00;;;;;;;18.12;70.72;100689.09;6341368;28;20056;-73
2023/09/05 03:18:04;;;;;;;3.40;2.00;;;;;;;18.01;70.36;100688.28;6339846;28;20047;-73
2023/09/05 03:21:05;;;;;;;2.25;2.00;;;;;;;18.10;70.47;100685.72;6343339;28;20514;-73
2023/09/05 03:24:06;;;;;;;3.30;2.08;;;;;;;18.10;69.59;100693.66;6342415;28;20584;-73
2023/09/05 03:27:06;;;;;;;4.07;1.80;;;;;;;17.91;70.82;100690.84;6334693;28;20039;-74
2023/09/05 03:30:08;;;;;;;3.25;1.98;;;;;;;17.97;70.49;100700.06;6340709;28;20047;-73
2023/09/05 03:33:09;;;;;;;4.50;2.25;;;;;;;17.96;70.64;100698.41;6346819;28;20046;-74
2023/09/05 03:36:11;;;;;;;5.50;2.00;;;;;;;17.61;71.75;100705.53;6342671;28;20091;-74
2023/09/05 03:39:11;;;;;;;2.40;2.07;;;;;;;17.84;71.56;100708.16;6351148;27;20350;-73
2023/09/05 03:42:12;;;;;;;2.95;1.98;;;;;;;17.68;71.33;100708.50;6331902;28;20145;-73
2023/09/05 03:45:13;;;;;;;3.53;2.20;;;;;;;17.84;71.54;100710.78;6348222;28;20066;-73
2023/09/05 03:48:14;;;;;;;6.50;2.30;;;;;;;17.84;71.30;100719.53;6350886;28;20127;-74
2023/09/05 03:51:15;;;;;;;2.72;1.75;;;;;;;17.77;71.73;100726.25;6349919;28;20051;-74
2023/09/05 03:54:16;;;;;;;3.03;2.03;;;;;;;17.68;71.83;100725.19;6350067;28;20101;-73
2023/09/05 03:57:16;;;;;;;2.53;2.10;;;;;;;17.25;74.23;100733.84;6346439;28;20130;-73
2023/09/05 04:00:17;;;;;;;3.10;2.05;;;;;;;17.25;74.61;100731.22;6329841;28;20519;-74
2023/09/05 04:03:20;;;;;;;5.78;2.28;;;;;;;17.30;73.90;100730.88;6339203;28;20060;-73
2023/09/05 04:06:21;;;;;;;5.05;2.40;;;;;;;17.27;74.57;100737.22;6333372;28;20044;-73
2023/09/05 04:09:21;;;;;;;3.35;1.77;;;;;;;17.08;74.63;100732.53;6343420;28;20054;-74
2023/09/05 04:12:22;;;;;;;2.65;1.98;;;;;;;17.41;74.22;100737.94;6347072;28;20053;-74
2023/09/05 04:15:23;;;;;;;3.92;2.45;;;;;;;17.27;74.14;100734.56;6349437;28;20098;-74
2023/09/05 04:18:24;;;;;;;3.13;2.10;;;;;;;17.31;74.30;100733.38;6349986;28;20046;-74
2023/09/05 04:21:27;;;;;;;2.97;2.00;;;;;;;17.35;74.08;100739.25;6348058;28;20048;-74
2023/09/05 04:24:30;;;;;;;3.58;2.28;;;;;;;17.44;73.58;100735.91;6349774;28;20058;-74
2023/09/05 04:27:31;;;;;;;2.42;1.98;;;;;;;17.58;72.86;100734.78;6339810;28;20442;-74
2023/09/05 04:30:35;;;;;;;4.32;2.58;;;;;;;17.83;72.16;100740.78;6326953;28;20135;-74
2023/09/05 04:33:40;;;;;;;3.67;2.05;;;;;;;17.68;72.20;100738.38;6336303;28;20051;-74
2023/09/05 04:36:40;;;;;;;4.80;2.30;;;;;;;17.58;73.11;100739.22;6322982;28;20094;-73
2023/09/05 04:39:41;;;;;;;3.40;2.15;;;;;;;17.62;72.74;100733.59;6323756;28;20380;-73
2023/09/05 04:42:42;;;;;;;3.88;2.10;;;;;;;17.53;73.05;100732.53;6336818;28;20052;-73
2023/09/05 04:45:53;;;;;;;4.90;1.77;;;;;;;17.59;73.37;100740.94;6348582;28;20089;-73
2023/09/05 04:48:53;;;;;;;3.33;2.35;;;;;;;17.89;71.65;100737.63;6349029;28;20541;-73
2023/09/05 04:51:56;;;;;;;3.15;2.08;;;;;;;17.96;71.63;100743.28;6347278;28;20051;-73
2023/09/05 04:54:59;;;;;;;3.10;2.35;;;;;;;18.03;71.80;100734.72;6347707;28;20055;-73
2023/09/05 04:58:00;;;;;;;4.82;2.72;;;;;;;17.99;70.66;100729.81;6349116;28;20078;-73
2023/09/05 05:01:03;;;;;;;4.60;2.55;;;;;;;18.18;69.84;100723.84;6345762;28;20075;-73
2023/09/05 05:04:06;;;;;;;4.13;2.20;;;;;;;18.03;70.89;100729.44;6326621;28;20048;-73
2023/09/05 05:07:10;;;;;;;4.95;2.20;;;;;;;18.10;70.66;100745.63;6339062;27;20484;-73
2023/09/05 05:10:13;;;;;;;4.57;2.40;;;;;;;18.29;69.47;100747.59;6321491;28;20071;-73
2023/09/05 05:13:14;;;;;;;5.15;2.67;;;;;;;18.19;69.36;100742.22;6321648;28;20048;-74
2023/09/05 05:16:15;;;;;;;5.30;2.55;;;;;;;18.26;69.64;100729.34;6338500;28;20044;-73
2023/09/05 05:19:16;;;;;;;2.58;2.20;;;;;;;18.25;69.56;100741.72;6338650;28;20051;-73
2023/09/05 05:22:17;;;;;;;3.00;2.05;;;;;;;18.27;69.50;100746.88;6322628;28;20051;-73
2023/09/05 05:25:20;;;;;;;5.10;2.55;;;;;;;18.27;68.94;100752.16;6321394;28;20569;-73
2023/09/05 05:28:21;;;;;;;4.63;2.50;;;;;;;18.42;69.17;100765.91;6322711;28;20051;-73
2023/09/05 05:31:22;;;;;;;3.47;2.47;;;;;;;18.42;69.26;100766.75;6338341;28;20052;-73
2023/09/05 05:34:25;;;;;;;4.72;2.53;;;;;;;18.48;68.70;100757.47;6321182;28;20411;-73
2023/09/05 05:37:30;;;;;;;3.70;2.53;;;;;;;18.92;68.64;100766.13;6321303;28;20484;-73
2023/09/05 05:40:31;;;;;;;5.10;2.38;;;;;;;18.88;67.47;100765.59;6321283;28;20079;-74
2023/09/05 05:43:32;;;;;;;2.88;2.38;;;;;;;19.13;67.01;100772.25;6322214;28;20404;-74
2023/09/05 05:46:35;;;;;;;3.70;2.55;;;;;;;19.15;66.69;100766.84;6321098;28;20522;-74
2023/09/05 05:49:38;;;;;;;3.28;2.25;;;;;;;19.26;66.33;100768.56;6322291;28;20487;-74
2023/09/05 05:52:39;;;;;;;5.00;2.33;;;;;;;19.26;66.39;100766.75;6337481;28;20058;-73
2023/09/05 05:55:40;;;;;;;3.58;2.17;;;;;;;19.42;64.94;100763.59;6337619;28;20044;-73
2023/09/05 05:58:41;;;;;;;3.40;2.55;;;;;;;19.68;64.75;100755.19;6322124;28;20080;-73
2023/09/05 06:01:41;;;;;;;4.40;2.30;;;;;;;19.59;64.67;100774.53;6321693;28;20135;-73
2023/09/05 06:04:42;;;;;;;3.97;2.45;;;;;;;19.74;64.19;100773.19;6321018;28;20135;-73
2023/09/05 06:07:45;;;;;;;4.68;2.28;;;;;;;19.87;63.18;100773.81;6321565;28;20048;-73
2023/09/05 06:10:46;;;;;;;4.32;2.38;;;;;;;19.96;63.12;100768.66;6320778;28;20048;-73
2023/09/05 06:13:52;;;;;;;3.85;2.42;;;;;;;20.38;62.89;100771.06;6321789;28;20067;-73
2023/09/05 06:16:53;;;;;;;4.32;2.30;;;;;;;20.22;62.21;100771.59;6337174;28;20051;-74
2023/09/05 06:19:54;;;;;;;4.85;2.60;;;;;;;20.27;62.67;100770.22;6321683;28;20052;-74
2023/09/05 06:22:55;;;;;;;4.25;2.47;;;;;;;20.62;61.73;100775.97;6321549;28;20048;-74
2023/09/05 06:25:58;;;;;;;5.15;2.40;;;;;;;20.71;60.92;100781.25;6321387;28;20051;-73
2023/09/05 06:28:59;;;;;;;7.35;2.50;;;;;;;20.80;60.49;100774.25;6320095;28;20155;-73
2023/09/05 06:32:00;;;;;;;9.55;2.92;;;;;;;21.10;59.54;100775.84;6321326;28;20483;-73
2023/09/05 06:35:05;;;;;;;3.08;2.28;;;;;;;21.20;59.25;100775.81;6336937;28;20393;-73
2023/09/05 06:38:05;;;;;;;3.97;2.17;;;;;;;21.04;59.19;100770.28;6321285;28;20045;-74
2023/09/05 06:41:07;;;;;;;3.45;2.17;;;;;;;21.53;58.65;100777.09;6320096;28;20055;-74
2023/09/05 06:44:08;;;;;;;4.68;1.90;;;;;;;21.73;57.48;100784.97;6320205;28;20048;-74
2023/09/05 06:47:09;;;;;;;4.97;2.33;;;;;;;21.58;58.19;100784.66;6319807;28;20485;-74
2023/09/05 06:50:10;;;;;;;3.25;2.20;;;;;;;22.01;57.19;100795.56;6320970;28;20048;-74
2023/09/05 06:53:14;;;;;;;7.35;2.28;;;;;;;22.10;57.13;100794.69;6319717;28;20392;-74
2023/09/05 06:56:17;;;;;;;3.85;2.25;;;;;;;21.99;56.05;100795.75;6320725;28;20063;-75
2023/09/05 06:59:18;;;;;;;3.53;1.80;;;;;;;22.27;55.60;100790.38;6321037;28;20051;-74
2023/09/05 07:02:19;;;;;;;3.67;2.00;;;;;;;22.03;55.95;100796.25;6319487;28;20388;-74
2023/09/05 07:05:22;;;;;;;5.18;2.55;;;;;;;22.42;56.43;100799.47;6322537;28;20146;-74
2023/09/05 07:08:23;;;;;;;2.97;1.90;;;;;;;22.62;55.20;100789.53;6324706;28;20101;-74
2023/09/05 07:11:24;;;;;;;3.03;2.30;;;;;;;22.43;56.00;100795.03;6341956;28;20086;-74
2023/09/05 07:14:29;;;;;;;2.78;1.90;;;;;;;22.65;54.70;100791.03;6325773;28;20051;-74
2023/09/05 07:17:33;;;;;;;2.85;2.05;;;;;;;22.62;54.63;100800.16;6325856;28;20097;-74
2023/09/05 07:20:33;;;;;;;6.07;2.33;;;;;;;22.94;54.96;100785.44;6325769;28;20044;-73
2023/09/05 07:23:37;;;;;;;4.10;2.50;;;;;;;22.82;54.04;100798.16;6325921;28;20048;-74
2023/09/05 07:26:43;;;;;;;6.95;2.30;;;;;;;22.99;53.86;100796.44;6324306;28;20411;-74
2023/09/05 07:29:44;;;;;;;3.20;2.20;;;;;;;23.37;53.93;100801.50;6325462;28;20087;-73
2023/09/05 07:32:45;;;;;;;10.00;2.57;;;;;;;23.43;53.60;100814.19;6324206;28;20505;-74
2023/09/05 07:35:46;;;;;;;3.43;2.07;;;;;;;23.72;53.18;100805.81;6325224;28;20048;-74
2023/09/05 07:38:47;;;;;;;7.07;2.63;;;;;;;23.64;53.18;100808.44;6340946;28;20044;-74
2023/09/05 07:41:47;;;;;;;4.90;2.40;;;;;;;23.54;52.65;100806.75;6325273;28;20048;-74
2023/09/05 07:44:48;;;;;;;3.50;2.27;;;;;;;23.79;52.98;100795.41;6325430;28;20052;-74
2023/09/05 07:47:51;;;;;;;3.40;2.10;;;;;;;24.18;53.50;100800.97;6323745;28;20078;-74
2023/09/05 07:51:03;;;;;;;4.90;2.10;;;;;;;24.59;53.24;100802.91;6325302;28;20052;-74
2023/09/05 07:54:06;;;;;;;3.72;2.08;;;;;;;24.63;51.44;100794.38;6323724;28;20044;-74
2023/09/05 07:57:09;;;;;;;4.72;2.00;;;;;;;24.64;50.09;100782.69;6324728;28;20384;-74
2023/09/05 08:00:15;;;;;;;4.47;2.20;;;;;;;24.62;50.23;100789.19;6323600;28;20090;-74
2023/09/05 08:03:18;;;;;;;3.35;1.90;;;;;;;24.69;48.77;100779.53;6324808;28;20056;-73
2023/09/05 08:06:20;;;;;;;2.83;2.10;;;;;;;25.09;49.72;100781.28;6324724;28;20094;-74
2023/09/05 08:09:21;;;;;;;3.83;2.00;;;;;;;24.99;48.65;100785.97;6324642;28;20396;-74
2023/09/05 08:12:21;;;;;;;2.90;1.73;;;;;;;24.95;51.25;100776.66;6324759;28;20052;-74
2023/09/05 08:15:25;;;;;;;3.07;1.90;;;;;;;25.27;48.63;100774.94;6323857;28;20499;-74
2023/09/05 08:18:31;;;;;;;3.85;1.90;;;;;;;25.88;47.75;100783.16;6323263;28;20044;-75
2023/09/05 08:21:33;;;;;;;4.78;2.00;;;;;;;26.07;48.27;100771.22;6324414;28;20133;-74
2023/09/05 08:24:33;;;;;;;5.05;2.30;;;;;;;25.38;46.65;100771.06;6323371;28;20050;-75
2023/09/05 08:27:34;;;;;;;7.43;2.63;;;;;;;25.65;47.32;100773.25;6323999;28;20073;-74
2023/09/05 08:30:35;;;;;;;3.90;2.03;;;;;;;25.53;46.06;100767.50;6324039;28;20483;-74
2023/09/05 08:33:41;;;;;;;3.43;1.63;;;;;;;26.13;45.39;100766.00;6324103;28;20396;-74
2023/09/05 08:36:42;;;;;;;3.20;1.92;;;;;;;25.90;45.28;100762.47;6323814;28;20051;-74
2023/09/05 08:39:46;;;;;;;2.93;1.97;;;;;;;26.48;45.75;100766.41;6339637;28;20514;-74
2023/09/05 08:42:53;;;;;;;2.03;1.67;;;;;;;26.54;44.95;100759.47;6323837;28;20403;-72
2023/09/05 08:46:00;;;;;;;5.65;1.83;;;;;;;26.67;45.41;100753.53;6324037;28;20048;-72
2023/09/05 08:49:01;;;;;;;2.97;1.95;;;;;;;26.70;43.37;100753.16;6322746;28;20046;-73
2023/09/05 08:52:04;;;;;;;2.85;1.80;;;;;;;26.42;43.45;100745.72;6323776;28;20044;-73
2023/09/05 08:55:06;;;;;;;2.88;1.80;;;;;;;26.81;44.25;100754.56;6339327;28;20048;-73
2023/09/05 08:58:13;;;;;;;12.95;2.00;;;;;;;26.87;43.11;100754.69;6322188;28;20052;-72
2023/09/05 09:01:16;;;;;;;2.30;1.83;;;;;;;26.73;44.23;100750.16;6322072;28;20048;-72
2023/09/05 09:04:21;;;;;;;2.47;1.73;;;;;;;26.79;43.64;100743.19;6321781;28;20101;-73
2023/09/05 09:07:29;;;;;;;3.92;1.90;;;;;;;27.12;42.08;100747.19;6322955;28;20537;-73
2023/09/05 09:10:29;;;;;;;3.97;2.00;;;;;;;27.46;44.67;100739.63;6338981;28;20052;-73
2023/09/05 09:13:30;;;;;;;4.57;2.03;;;;;;;27.26;42.36;100737.53;6321848;28;20050;-73
2023/09/05 09:16:31;;;;;;;2.90;1.93;;;;;;;27.28;42.42;100734.66;6323205;28;20052;-73
2023/09/05 09:19:32;;;;;;;6.77;2.23;;;;;;;28.07;43.04;100736.59;6321734;28;20490;-73
2023/09/05 09:22:33;;;;;;;4.97;1.90;;;;;;;28.30;41.75;100737.22;6321970;28;20273;-73
2023/09/05 09:25:45;;;;;;;3.80;2.03;;;;;;;27.78;40.17;100732.13;6322941;28;20508;-74
2023/09/05 09:28:46;;;;;;;3.70;1.90;;;;;;;27.98;40.49;100722.47;6322032;28;20047;-73
2023/09/05 09:31:47;;;;;;;2.03;1.52;;;;;;;28.16;40.34;100724.69;6321576;28;20127;-73
2023/09/05 09:34:50;;;;;;;3.03;1.98;;;;;;;28.61;40.95;100722.63;6322599;28;20054;-73
2023/09/05 09:37:51;;;;;;;2.78;1.70;;;;;;;28.90;41.68;100724.25;6322507;28;20094;-73
2023/09/05 09:40:52;;;;;;;2.13;1.67;;;;;;;29.16;40.60;100720.09;6322396;28;20138;-73
2023/09/05 09:43:58;;;;;;;3.05;1.70;;;;;;;28.61;38.15;100719.94;6322546;28;20465;-73
2023/09/05 09:47:01;;;;;;;2.38;1.67;;;;;;;29.25;39.08;100718.88;6322211;28;20143;-72
2023/09/05 09:50:02;;;;;;;2.83;1.70;;;;;;;29.43;39.70;100712.94;6322433;28;20131;-74
2023/09/05 09:53:04;;;;;;;4.85;1.75;;;;;;;28.97;38.90;100702.78;6321028;28;20056;-74
2023/09/05 09:56:11;;;;;;;2.03;1.77;;;;;;;29.23;40.33;100710.19;6337947;28;20052;-74
2023/09/05 09:59:16;;;;;;;2.17;1.48;;;;;;;29.30;40.74;100710.19;6322026;28;20531;-73
2023/09/05 10:02:20;;;;;;;4.32;2.05;;;;;;;29.47;38.43;100705.31;6346767;28;20087;-73
2023/09/05 10:05:24;;;;;;;3.50;1.90;;;;;;;29.41;36.99;100708.81;6345482;28;20051;-73
2023/09/05 10:08:28;;;;;;;2.50;1.70;;;;;;;29.91;38.90;100707.50;6347032;28;20040;-74
2023/09/05 10:11:33;;;;;;;2.92;1.90;;;;;;;29.64;37.26;100719.22;6345430;28;20070;-73
2023/09/05 10:14:37;;;;;;;2.97;1.60;;;;;;;29.46;38.30;100711.72;6335782;28;20048;-74
2023/09/05 10:17:39;;;;;;;3.88;1.90;;;;;;;29.59;38.41;100717.13;6336118;28;20039;-73
2023/09/05 10:20:42;;;;;;;3.58;1.80;;;;;;;30.00;38.15;100709.97;6341103;28;20097;-73
2023/09/05 10:23:46;;;;;;;3.08;1.77;;;;;;;30.01;39.60;100712.47;6342244;28;20422;-74
2023/09/05 10:26:47;;;;;;;4.13;1.85;;;;;;;30.11;38.15;100712.06;6346194;28;20077;-74
2023/09/05 10:29:49;;;;;;;3.60;1.88;;;;;;;30.22;36.17;100714.13;6345398;28;20051;-74
2023/09/05 10:32:55;;;;;;;2.40;1.80;;;;;;;30.35;39.12;100724.09;6345201;28;20112;-73
2023/09/05 10:35:55;;;;;;;5.57;1.73;;;;;;;30.61;37.56;100707.09;6335813;28;20494;-74
2023/09/05 10:38:57;;;;;;;2.17;1.80;;;;;;;30.75;35.47;100707.91;6335995;28;20165;-73
2023/09/05 10:41:58;;;;;;;2.35;1.60;;;;;;;30.42;35.35;100716.84;6343973;28;20284;-73
2023/09/05 10:45:15;;;;;;;2.08;1.58;;;;;;;31.11;37.38;100720.91;6344263;28;20097;-73
2023/09/05 10:48:45;;;;;;;2.80;1.60;;;;;;;30.41;35.25;100707.13;6342972;28;20047;-73
2023/09/05 10:52:18;;;;;;;3.13;1.50;;;;;;;30.07;34.77;100706.28;6344790;28;20048;-73
2023/09/05 10:55:39;;;;;;;2.35;1.67;;;;;;;30.40;36.92;100705.47;6339311;28;20051;-73
2023/09/05 10:58:48;;;;;;;1.42;1.30;;;;;;;30.88;34.57;100712.47;6345379;28;20050;-72
2023/09/05 11:01:52;;;;;;;2.28;1.70;;;;;;;30.93;35.91;100708.09;6344511;28;20172;-73
2023/09/05 11:04:56;;;;;;;3.72;1.60;;;;;;;30.11;35.80;100706.69;6346004;28;20088;-73
2023/09/05 11:07:58;;;;;;;2.40;1.67;;;;;;;30.45;36.79;100704.84;6344516;28;20070;-73
2023/09/05 11:11:01;;;;;;;3.05;1.83;;;;;;;30.21;34.21;100707.13;6345923;28;20127;-73
2023/09/05 11:14:06;;;;;;;2.67;1.58;;;;;;;30.85;35.94;100702.91;6344624;28;20051;-73
2023/09/05 11:17:13;;;;;;;2.53;1.88;;;;;;;31.15;37.16;100710.50;6344313;28;20483;-73
2023/09/05 11:20:15;;;;;;;3.25;1.77;;;;;;;31.38;34.96;100698.38;6345549;28;20402;-73
2023/09/05 11:23:25;;;;;;;2.45;1.60;;;;;;;31.47;37.63;100697.13;6345878;28;20082;-74
2023/09/05 11:26:26;;;;;;;2.08;1.60;;;;;;;31.55;33.94;100694.16;6345740;28;20079;-73
2023/09/05 11:29:28;;;;;;;2.17;1.50;;;;;;;31.07;33.87;100689.16;6345448;28;20051;-73
2023/09/05 11:32:33;;;;;;;1.67;1.40;;;;;;;30.77;34.18;100695.06;6345573;28;20483;-73
2023/09/05 11:35:38;;;;;;;2.33;1.63;;;;;;;31.00;34.42;100683.00;6345816;28;20100;-73
2023/09/05 11:38:49;;;;;;;1.95;1.55;;;;;;;30.57;34.67;100686.19;6344197;28;20422;-73
2023/09/05 11:41:54;;;;;;;2.58;1.88;;;;;;;30.56;34.20;100681.81;6344337;28;20089;-73
2023/09/05 11:44:54;;;;;;;3.53;1.80;;;;;;;30.82;35.01;100679.06;6343511;28;20056;-73
2023/09/05 11:47:58;;;;;;;2.17;1.55;;;;;;;30.88;34.39;100680.94;6344107;28;20439;-73
2023/09/05 11:50:59;;;;;;;2.50;1.70;;;;;;;30.54;33.81;100679.38;6343359;28;20044;-73
2023/09/05 11:54:00;;;;;;;1.88;1.40;;;;;;;31.36;36.14;100681.56;6348918;27;20043;-73
2023/09/05 11:57:02;;;;;;;2.80;1.67;;;;;;;31.70;34.87;100674.97;6354270;27;20039;-73
2023/09/05 12:00:16;;;;;;;1.52;1.42;;;;;;;31.47;35.09;100670.16;6348111;28;20044;-73
2023/09/05 12:03:17;;;;;;;1.80;1.60;;;;;;;31.30;34.01;100675.19;6349223;28;20792;-72
2023/09/05 12:06:21;;;;;;;2.35;1.55;;;;;;;31.38;34.46;100674.94;6348395;28;20085;-73
2023/09/05 12:09:22;;;;;;;2.50;1.77;;;;;;;31.09;34.39;100669.06;6349862;28;20044;-73
2023/09/05 12:12:22;;;;;;;2.15;1.60;;;;;;;31.32;33.36;100665.03;6347351;28;20047;-73
2023/09/05 12:15:34;;;;;;;1.15;1.05;;;;;;;31.21;33.15;100671.91;6343666;28;20050;-73
2023/09/05 12:18:35;;;;;;;3.13;1.88;;;;;;;31.32;36.52;100671.25;6333028;28;20043;-73
2023/09/05 12:21:40;;;;;;;2.53;1.75;;;;;;;31.16;35.50;100673.63;6334754;28;20105;-72
2023/09/05 12:24:41;;;;;;;1.50;1.40;;;;;;;30.92;33.32;100660.63;6343269;28;20595;-73
2023/09/05 12:27:44;;;;;;;1.83;1.52;;;;;;;30.91;33.35;100660.88;6345098;28;20040;-72
2023/09/05 12:30:45;;;;;;;3.60;1.60;;;;;;;30.96;35.28;100662.91;6341359;28;20479;-73
2023/09/05 12:33:46;;;;;;;2.88;1.67;;;;;;;31.29;33.95;100655.47;6336839;28;20556;-73
2023/09/05 12:36:46;;;;;;;1.88;1.60;;;;;;;31.38;34.68;100649.84;6354115;27;20043;-74
2023/09/05 12:39:50;;;;;;;3.10;1.80;;;;;;;31.19;36.69;100662.38;6361395;27;20071;-74
2023/09/05 12:42:51;;;;;;;3.03;1.67;;;;;;;31.29;35.25;100657.34;6328718;28;20047;-74
2023/09/05 12:45:52;;;;;;;2.35;1.73;;;;;;;31.17;34.02;100654.50;6338131;27;20092;-74
2023/09/05 12:48:54;;;;;;;2.17;1.65;;;;;;;30.88;36.88;100645.09;6335913;28;20052;-74
2023/09/05 12:51:57;;;;;;;6.15;1.70;;;;;;;30.63;33.71;100639.56;6339851;28;20048;-74
2023/09/05 12:55:03;;;;;;;2.28;1.50;;;;;;;30.74;31.93;100633.50;6348346;28;20470;-73
2023/09/05 12:58:06;;;;;;;2.22;1.55;;;;;;;31.06;35.13;100641.72;6348251;28;20047;-73
2023/09/05 13:01:07;;;;;;;3.00;1.52;;;;;;;31.19;34.65;100643.53;6346757;28;20131;-74
2023/09/05 13:04:10;;;;;;;3.80;1.77;;;;;;;30.79;34.10;100633.72;6343973;28;20059;-73
2023/09/05 13:07:11;;;;;;;3.45;1.50;;;;;;;30.84;34.52;100633.88;6347888;28;20043;-74
2023/09/05 13:10:12;;;;;;;1.65;1.40;;;;;;;30.61;32.55;100629.00;6347902;28;20056;-73
2023/09/05 13:13:13;;;;;;;2.38;1.45;;;;;;;30.64;34.06;100630.44;6346799;28;20051;-74
2023/09/05 13:16:16;;;;;;;3.60;1.38;;;;;;;30.69;33.36;100628.78;6346947;28;20055;-73
2023/09/05 13:19:17;;;;;;;1.83;1.48;;;;;;;30.59;33.31;100627.56;6348217;28;20059;-73
2023/09/05 13:22:18;;;;;;;2.70;1.60;;;;;;;30.84;33.84;100631.19;6347857;28;20559;-73
2023/09/05 13:25:21;;;;;;;2.83;1.60;;;;;;;30.97;33.52;100633.06;6346706;28;20055;-74
2023/09/05 13:28:22;;;;;;;2.25;1.40;;;;;;;31.33;34.32;100629.75;6347976;28;20047;-74
2023/09/05 13:31:24;;;;;;;3.00;1.83;;;;;;;30.78;32.75;100623.16;6347941;28;20066;-73
2023/09/05 13:34:25;;;;;;;2.75;1.67;;;;;;;30.75;33.53;100637.06;6347548;28;20195;-73
2023/09/05 13:37:26;;;;;;;1.33;1.23;;;;;;;30.68;33.79;100615.50;6328799;28;20073;-73
2023/09/05 13:40:30;;;;;;;6.18;1.77;;;;;;;30.80;35.63;100619.19;6330899;28;20048;-73
2023/09/05 13:43:31;;;;;;;2.28;1.58;;;;;;;30.52;34.04;100604.19;6347310;28;20052;-73
2023/09/05 13:46:32;;;;;;;2.97;1.63;;;;;;;29.71;33.18;100623.28;6346342;28;20142;-72
2023/09/05 13:49:33;;;;;;;3.30;1.55;;;;;;;30.10;33.17;100627.00;6346505;28;20510;-73
2023/09/05 13:52:33;;;;;;;1.63;1.50;;;;;;;30.04;34.56;100622.44;6347214;28;20093;-73
2023/09/05 13:55:34;;;;;;;2.65;1.60;;;;;;;30.19;33.69;100622.25;6343255;28;20044;-73
2023/09/05 13:58:35;;;;;;;3.65;1.92;;;;;;;30.09;33.27;100619.97;6347263;28;20456;-73
2023/09/05 14:01:39;;;;;;;3.38;1.80;;;;;;;30.13;34.38;100618.53;6346792;28;20134;-72
2023/09/05 14:04:40;;;;;;;2.22;1.40;;;;;;;30.18;34.30;100621.41;6345559;28;20047;-73
2023/09/05 14:07:41;;;;;;;2.72;1.50;;;;;;;30.00;35.41;100614.00;6346993;28;20498;-73